createdAt,value
2022-10-30T00:01:01.088Z,16.73
2022-10-30T00:03:04.237Z,16.65
2022-10-30T00:05:07.970Z,16.77
2022-10-30T00:07:10.667Z,16.75
2022-10-30T00:09:13.478Z,16.65
2022-10-30T00:11:16.064Z,16.58
2022-10-30T00:13:21.391Z,16.56
2022-10-30T00:15:24.039Z,16.37
2022-10-30T00:17:26.799Z,16.40
2022-10-30T00:19:29.423Z,16.30
2022-10-30T00:21:32.091Z,16.28
2022-10-30T00:23:34.695Z,16.18
2022-10-30T00:25:37.788Z,16.14
2022-10-30T00:27:40.501Z,16.20
2022-10-30T00:29:44.523Z,16.40
2022-10-30T00:31:47.144Z,16.23
2022-10-30T00:33:53.611Z,16.12
2022-10-30T00:35:56.279Z,16.10
2022-10-30T00:37:59.555Z,16.04
2022-10-30T00:40:02.284Z,15.98
2022-10-30T00:42:05.220Z,15.99
2022-10-30T00:44:39.072Z,15.98
2022-10-30T00:46:43.705Z,16.16
2022-10-30T00:48:52.641Z,16.01
2022-10-30T00:50:56.914Z,15.94
2022-10-30T00:53:03.290Z,16.13
2022-10-30T00:55:11.537Z,16.25
2022-10-30T00:57:14.984Z,16.12
2022-10-30T00:59:23.864Z,15.94
2022-10-30T01:01:28.129Z,15.99
2022-10-30T01:03:33.127Z,16.04
2022-10-30T01:05:37.262Z,16.19
2022-10-30T01:07:39.868Z,15.89
2022-10-30T01:09:43.170Z,15.76
2022-10-30T01:11:45.875Z,15.67
2022-10-30T01:13:51.419Z,15.88
2022-10-30T01:16:08.311Z,15.77
2022-10-30T01:18:24.089Z,15.61
2022-10-30T01:20:56.200Z,15.66
2022-10-30T01:23:05.565Z,15.79
2022-10-30T01:25:20.548Z,15.77
2022-10-30T01:27:35.375Z,15.73
2022-10-30T01:29:49.349Z,15.79
2022-10-30T01:32:02.588Z,15.86
2022-10-30T01:34:13.345Z,15.72
2022-10-30T01:36:24.781Z,15.66
2022-10-30T01:38:33.082Z,15.87
2022-10-30T01:40:35.744Z,15.75
2022-10-30T01:42:56.317Z,15.72
2022-10-30T01:44:59.329Z,15.73
2022-10-30T01:47:14.102Z,15.83
2022-10-30T01:49:43.091Z,16.09
2022-10-30T01:51:57.629Z,16.11
2022-10-30T01:54:10.476Z,16.06
2022-10-30T01:56:21.665Z,16.25
2022-10-30T01:58:29.586Z,16.15
2022-10-30T02:00:32.242Z,15.84
2022-10-30T02:02:36.670Z,15.88
2022-10-30T02:07:09.736Z,15.72
2022-10-30T02:09:12.573Z,15.77
2022-10-30T02:11:16.877Z,15.79
2022-10-30T02:13:20.107Z,15.59
2022-10-30T02:15:22.880Z,15.59
2022-10-30T02:17:26.664Z,15.48
2022-10-30T02:19:29.653Z,15.42
2022-10-30T02:21:33.686Z,15.45
2022-10-30T02:23:37.323Z,15.31
2022-10-30T02:25:39.971Z,15.05
2022-10-30T02:27:43.155Z,15.04
2022-10-30T02:29:45.874Z,15.26
2022-10-30T02:31:49.139Z,15.09
2022-10-30T02:33:51.774Z,14.99
2022-10-30T02:35:54.634Z,15.35
2022-10-30T02:37:59.090Z,15.15
2022-10-30T02:40:03.925Z,14.95
2022-10-30T02:42:06.612Z,15.13
2022-10-30T02:44:09.241Z,15.10
2022-10-30T02:46:11.904Z,14.90
2022-10-30T02:48:14.543Z,14.69
2022-10-30T02:50:17.463Z,14.65
2022-10-30T02:52:20.087Z,14.46
2022-10-30T02:54:24.066Z,14.70
2022-10-30T02:56:26.869Z,14.64
2022-10-30T02:58:29.519Z,14.57
2022-10-30T03:00:32.547Z,14.29
2022-10-30T03:02:35.221Z,14.23
2022-10-30T03:04:37.868Z,14.25
2022-10-30T03:06:40.444Z,14.31
2022-10-30T03:08:43.522Z,14.07
2022-10-30T03:10:47.489Z,14.08
2022-10-30T03:12:50.194Z,14.26
2022-10-30T03:14:52.785Z,14.18
2022-10-30T03:16:55.489Z,14.08
2022-10-30T03:18:59.280Z,14.19
2022-10-30T03:21:04.839Z,14.27
2022-10-30T03:23:07.483Z,14.74
2022-10-30T03:25:10.746Z,14.81
2022-10-30T03:27:14.739Z,14.74
2022-10-30T03:29:17.340Z,14.89
2022-10-30T03:31:20.705Z,14.57
2022-10-30T03:33:23.379Z,14.38
2022-10-30T03:35:25.980Z,14.43
2022-10-30T03:37:28.564Z,14.51
2022-10-30T03:39:31.241Z,14.81
2022-10-30T03:41:33.857Z,14.39
2022-10-30T03:43:37.962Z,14.15
2022-10-30T03:45:40.616Z,14.07
2022-10-30T03:47:43.269Z,14.02
2022-10-30T03:49:45.877Z,13.99
2022-10-30T03:51:48.540Z,13.82
2022-10-30T03:53:51.153Z,13.87
2022-10-30T03:55:54.538Z,14.03
2022-10-30T03:57:57.392Z,13.92
2022-10-30T04:00:01.479Z,14.10
2022-10-30T04:02:04.247Z,13.92
2022-10-30T04:04:07.103Z,13.74
2022-10-30T04:06:10.060Z,13.67
2022-10-30T04:08:14.797Z,13.82
2022-10-30T04:10:21.080Z,13.85
2022-10-30T04:12:26.404Z,13.78
2022-10-30T04:14:29.026Z,13.73
2022-10-30T04:16:33.055Z,13.73
2022-10-30T04:18:35.680Z,13.69
2022-10-30T04:20:38.454Z,13.70
2022-10-30T04:22:41.072Z,13.70
2022-10-30T04:24:44.691Z,13.48
2022-10-30T04:26:47.295Z,13.43
2022-10-30T04:28:49.911Z,13.24
2022-10-30T04:30:52.548Z,13.19
2022-10-30T04:32:58.114Z,13.10
2022-10-30T04:35:01.260Z,13.15
2022-10-30T04:37:05.026Z,13.42
2022-10-30T04:39:07.660Z,13.27
2022-10-30T04:41:10.323Z,13.21
2022-10-30T04:43:14.056Z,13.17
2022-10-30T04:45:17.650Z,13.05
2022-10-30T04:47:20.370Z,12.98
2022-10-30T04:49:24.451Z,13.03
2022-10-30T04:51:27.074Z,13.00
2022-10-30T04:53:29.695Z,13.15
2022-10-30T04:55:33.198Z,13.18
2022-10-30T04:57:36.849Z,13.02
2022-10-30T04:59:39.504Z,12.91
2022-10-30T05:01:42.245Z,12.88
2022-10-30T05:03:46.224Z,12.92
2022-10-30T05:05:58.400Z,12.80
2022-10-30T05:08:01.513Z,12.66
2022-10-30T05:10:04.628Z,12.59
2022-10-30T05:12:07.830Z,12.61
2022-10-30T05:14:10.444Z,12.51
2022-10-30T05:16:13.100Z,12.71
2022-10-30T05:18:15.818Z,13.04
2022-10-30T05:20:19.098Z,12.73
2022-10-30T05:22:23.324Z,12.51
2022-10-30T05:24:25.914Z,12.50
2022-10-30T05:26:28.721Z,12.43
2022-10-30T05:28:31.366Z,12.55
2022-10-30T05:30:37.908Z,12.56
2022-10-30T05:32:40.570Z,12.44
2022-10-30T05:34:43.331Z,12.33
2022-10-30T05:36:45.944Z,12.43
2022-10-30T05:38:50.037Z,12.94
2022-10-30T05:40:52.649Z,12.78
2022-10-30T05:42:55.707Z,12.56
2022-10-30T05:45:01.387Z,12.50
2022-10-30T05:47:04.863Z,12.41
2022-10-30T05:49:07.664Z,12.39
2022-10-30T05:51:10.285Z,12.67
2022-10-30T05:53:13.096Z,12.61
2022-10-30T05:55:17.244Z,12.39
2022-10-30T05:57:19.887Z,12.25
2022-10-30T05:59:22.484Z,12.22
2022-10-30T06:01:25.145Z,12.09
2022-10-30T06:03:27.898Z,12.00
2022-10-30T06:05:31.876Z,11.89
2022-10-30T06:07:34.506Z,11.92
2022-10-30T06:09:37.603Z,11.93
2022-10-30T06:11:41.610Z,11.88
2022-10-30T06:13:44.204Z,11.82
2022-10-30T06:15:46.873Z,11.75
2022-10-30T06:17:49.516Z,11.70
2022-10-30T06:19:52.094Z,11.73
2022-10-30T06:21:55.421Z,11.68
2022-10-30T06:23:58.885Z,11.59
2022-10-30T06:26:01.502Z,11.74
2022-10-30T06:28:05.855Z,11.77
2022-10-30T06:30:09.497Z,11.74
2022-10-30T06:32:12.112Z,11.74
2022-10-30T06:34:14.769Z,11.75
2022-10-30T06:36:18.300Z,11.87
2022-10-30T06:38:20.941Z,12.17
2022-10-30T06:40:23.808Z,12.33
2022-10-30T06:42:26.444Z,12.32
2022-10-30T06:44:30.390Z,12.18
2022-10-30T06:46:33.810Z,12.19
2022-10-30T06:48:36.692Z,12.15
2022-10-30T06:50:39.564Z,12.09
2022-10-30T06:52:42.810Z,12.07
2022-10-30T06:54:45.422Z,12.06
2022-10-30T06:56:51.041Z,11.97
2022-10-30T06:58:53.637Z,11.98
2022-10-30T07:01:00.891Z,12.12
2022-10-30T07:03:04.574Z,12.14
2022-10-30T07:05:07.523Z,12.13
2022-10-30T07:07:10.330Z,12.02
2022-10-30T07:09:12.901Z,12.20
2022-10-30T07:11:15.672Z,12.25
2022-10-30T07:13:18.869Z,12.19
2022-10-30T07:15:21.471Z,12.25
2022-10-30T07:17:25.461Z,12.34
2022-10-30T07:19:28.056Z,12.41
2022-10-30T07:21:31.598Z,12.57
2022-10-30T07:23:34.232Z,12.68
2022-10-30T07:25:36.831Z,12.72
2022-10-30T07:27:43.143Z,12.75
2022-10-30T07:29:45.740Z,13.01
2022-10-30T07:32:01.506Z,13.09
2022-10-30T07:34:06.653Z,13.40
2022-10-30T07:36:10.112Z,13.43
2022-10-30T07:38:14.187Z,13.34
2022-10-30T07:40:16.951Z,13.32
2022-10-30T07:42:19.602Z,13.40
2022-10-30T07:44:22.226Z,13.55
2022-10-30T07:46:24.886Z,13.58
2022-10-30T07:48:27.499Z,13.56
2022-10-30T07:50:31.519Z,13.60
2022-10-30T07:52:34.528Z,13.68
2022-10-30T07:54:37.679Z,13.86
2022-10-30T07:56:40.283Z,13.91
2022-10-30T07:58:45.742Z,13.91
2022-10-30T08:00:48.628Z,13.91
2022-10-30T08:02:52.085Z,13.88
2022-10-30T08:04:54.839Z,13.88
2022-10-30T08:06:58.835Z,13.77
2022-10-30T08:09:01.481Z,13.75
2022-10-30T08:11:04.091Z,13.70
2022-10-30T08:13:06.689Z,13.70
2022-10-30T08:15:09.772Z,13.72
2022-10-30T08:17:12.444Z,13.70
2022-10-30T08:19:15.087Z,13.71
2022-10-30T08:21:17.702Z,13.81
2022-10-30T08:23:21.803Z,13.93
2022-10-30T08:25:27.231Z,13.92
2022-10-30T08:27:29.869Z,13.89
2022-10-30T08:29:34.640Z,13.98
2022-10-30T08:31:37.232Z,14.02
2022-10-30T08:33:40.051Z,14.01
2022-10-30T08:35:49.602Z,14.06
2022-10-30T08:37:56.350Z,14.10
2022-10-30T08:40:00.379Z,14.23
2022-10-30T08:42:03.039Z,14.32
2022-10-30T08:44:06.091Z,14.37
2022-10-30T08:46:08.692Z,14.46
2022-10-30T08:48:13.376Z,14.54
2022-10-30T08:50:16.184Z,14.72
2022-10-30T08:52:18.770Z,14.86
2022-10-30T08:54:21.363Z,14.90
2022-10-30T08:56:25.361Z,15.00
2022-10-30T08:58:27.973Z,15.04
2022-10-30T09:00:30.926Z,15.06
2022-10-30T09:02:34.177Z,15.14
2022-10-30T09:04:36.976Z,15.21
2022-10-30T09:06:39.582Z,15.36
2022-10-30T09:08:42.248Z,15.43
2022-10-30T09:10:44.876Z,15.47
2022-10-30T09:12:48.906Z,15.59
2022-10-30T09:14:51.491Z,15.62
2022-10-30T09:16:55.927Z,15.63
2022-10-30T09:18:58.593Z,15.74
2022-10-30T09:21:04.588Z,15.80
2022-10-30T09:23:07.944Z,15.96
2022-10-30T09:25:10.614Z,15.85
2022-10-30T09:27:13.240Z,15.98
2022-10-30T09:29:17.257Z,16.11
2022-10-30T09:31:19.879Z,16.20
2022-10-30T09:33:22.501Z,16.30
2022-10-30T09:35:25.376Z,16.51
2022-10-30T09:37:28.187Z,16.56
2022-10-30T09:39:30.913Z,16.56
2022-10-30T09:41:50.203Z,16.65
2022-10-30T09:44:09.189Z,16.82
2022-10-30T09:46:29.621Z,16.83
2022-10-30T09:48:50.181Z,16.91
2022-10-30T09:51:05.110Z,17.01
2022-10-30T09:53:16.487Z,17.06
2022-10-30T09:55:34.699Z,17.21
2022-10-30T09:57:44.820Z,17.36
2022-10-30T10:00:00.825Z,17.41
2022-10-30T10:02:22.310Z,17.50
2022-10-30T10:04:29.570Z,17.62
2022-10-30T10:06:34.914Z,17.66
2022-10-30T10:08:42.410Z,17.72
2022-10-30T10:10:47.162Z,17.71
2022-10-30T10:12:57.236Z,17.79
2022-10-30T10:15:12.503Z,17.94
2022-10-30T10:17:25.278Z,18.03
2022-10-30T10:19:33.404Z,18.03
2022-10-30T10:21:42.729Z,18.28
2022-10-30T10:23:49.360Z,18.33
2022-10-30T10:25:55.051Z,18.38
2022-10-30T10:28:08.901Z,18.53
2022-10-30T10:33:11.505Z,18.75
2022-10-30T10:35:38.771Z,18.92
2022-10-30T10:37:50.449Z,19.08
2022-10-30T10:40:11.131Z,19.17
2022-10-30T10:44:37.171Z,19.31
2022-10-30T10:46:56.617Z,19.41
2022-10-30T10:49:10.119Z,19.49
2022-10-30T10:51:16.611Z,19.50
2022-10-30T10:53:23.597Z,19.54
2022-10-30T10:55:29.610Z,19.52
2022-10-30T10:57:35.720Z,19.67
2022-10-30T10:59:43.064Z,19.78
2022-10-30T11:01:54.005Z,19.71
2022-10-30T11:04:01.523Z,19.74
2022-10-30T11:06:22.741Z,19.76
2022-10-30T11:08:30.475Z,19.91
2022-10-30T11:10:33.876Z,20.14
2022-10-30T11:12:38.284Z,20.27
2022-10-30T11:14:41.484Z,20.32
2022-10-30T11:17:02.402Z,20.44
2022-10-30T11:19:10.279Z,20.48
2022-10-30T11:21:19.758Z,20.57
2022-10-30T11:23:38.812Z,20.72
2022-10-30T11:25:41.806Z,20.66
2022-10-30T11:27:46.169Z,20.70
2022-10-30T11:29:53.911Z,20.79
2022-10-30T11:32:04.940Z,20.93
2022-10-30T11:34:26.231Z,20.96
2022-10-30T11:36:30.630Z,21.01
2022-10-30T11:38:33.315Z,21.18
2022-10-30T11:40:36.301Z,21.26
2022-10-30T11:42:40.578Z,21.37
2022-10-30T11:44:46.597Z,21.29
2022-10-30T11:46:49.288Z,21.44
2022-10-30T11:48:54.981Z,21.54
2022-10-30T11:51:00.600Z,21.53
2022-10-30T11:53:12.860Z,21.67
2022-10-30T11:55:19.545Z,21.58
2022-10-30T11:57:25.783Z,21.70
2022-10-30T11:59:28.483Z,21.53
2022-10-30T12:01:32.699Z,21.44
2022-10-30T12:03:37.982Z,21.64
2022-10-30T12:05:44.906Z,21.56
2022-10-30T12:07:47.901Z,21.82
2022-10-30T12:09:51.933Z,21.78
2022-10-30T12:11:54.583Z,21.88
2022-10-30T12:13:57.968Z,22.06
2022-10-30T12:16:10.598Z,22.25
2022-10-30T12:18:21.062Z,22.30
2022-10-30T12:20:23.764Z,22.44
2022-10-30T12:22:31.018Z,22.49
2022-10-30T12:24:37.284Z,22.68
2022-10-30T12:26:41.701Z,22.71
2022-10-30T12:28:52.635Z,22.72
2022-10-30T12:30:59.445Z,22.77
2022-10-30T12:33:09.837Z,22.68
2022-10-30T12:35:34.048Z,23.08
2022-10-30T12:37:43.069Z,22.97
2022-10-30T12:39:55.183Z,23.11
2022-10-30T12:42:04.733Z,22.93
2022-10-30T12:44:15.804Z,23.13
2022-10-30T12:46:34.221Z,23.30
2022-10-30T12:48:42.755Z,23.32
2022-10-30T12:50:57.006Z,23.13
2022-10-30T12:53:07.832Z,22.87
2022-10-30T12:55:20.354Z,22.79
2022-10-30T12:57:27.858Z,22.65
2022-10-30T12:59:39.768Z,22.53
2022-10-30T13:01:50.564Z,22.61
2022-10-30T13:03:58.502Z,22.52
2022-10-30T13:06:07.003Z,22.36
2022-10-30T13:08:18.936Z,22.38
2022-10-30T13:10:29.828Z,22.47
2022-10-30T13:12:39.112Z,22.51
2022-10-30T13:14:46.687Z,22.39
2022-10-30T13:16:51.970Z,22.51
2022-10-30T13:18:58.191Z,22.43
2022-10-30T13:21:09.710Z,22.52
2022-10-30T13:23:17.828Z,22.55
2022-10-30T13:25:28.043Z,22.46
2022-10-30T13:27:41.771Z,22.56
2022-10-30T13:29:49.406Z,22.42
2022-10-30T13:32:04.261Z,22.19
2022-10-30T13:34:17.172Z,22.11
2022-10-30T13:36:25.143Z,22.17
2022-10-30T13:38:44.195Z,22.08
2022-10-30T13:40:52.389Z,21.98
2022-10-30T13:43:08.098Z,22.03
2022-10-30T13:45:48.751Z,21.92
2022-10-30T13:48:00.731Z,21.81
2022-10-30T13:50:27.048Z,21.83
2022-10-30T13:52:32.605Z,21.65
2022-10-30T13:54:40.323Z,21.55
2022-10-30T13:56:44.411Z,21.71
2022-10-30T13:59:00.028Z,21.74
2022-10-30T14:01:09.379Z,21.72
2022-10-30T14:03:25.810Z,21.59
2022-10-30T14:05:38.295Z,21.64
2022-10-30T14:07:50.494Z,21.67
2022-10-30T14:10:00.559Z,21.65
2022-10-30T14:12:41.755Z,21.47
2022-10-30T14:14:49.155Z,21.36
2022-10-30T14:17:10.614Z,21.09
2022-10-30T14:19:14.274Z,21.12
2022-10-30T14:21:50.451Z,20.96
2022-10-30T14:24:03.348Z,20.80
2022-10-30T14:26:20.367Z,20.76
2022-10-30T14:28:23.122Z,20.72
2022-10-30T14:30:28.839Z,20.68
2022-10-30T14:32:42.474Z,20.68
2022-10-30T14:34:46.894Z,20.73
2022-10-30T14:36:49.669Z,20.64
2022-10-30T14:39:02.658Z,20.35
2022-10-30T14:41:25.807Z,20.37
2022-10-30T14:43:37.085Z,20.31
2022-10-30T14:45:46.556Z,20.43
2022-10-30T14:47:57.429Z,20.26
2022-10-30T14:50:03.951Z,20.13
2022-10-30T14:52:16.206Z,20.07
2022-10-30T14:54:24.394Z,19.77
2022-10-30T14:56:36.423Z,19.75
2022-10-30T14:58:39.522Z,19.67
2022-10-30T15:00:44.035Z,19.56
2022-10-30T15:02:54.538Z,19.60
2022-10-30T15:05:21.050Z,19.47
2022-10-30T15:07:28.488Z,19.31
2022-10-30T15:09:57.287Z,19.30
2022-10-30T15:14:53.014Z,18.88
2022-10-30T15:16:58.281Z,18.75
2022-10-30T15:19:06.363Z,18.83
2022-10-30T15:21:09.120Z,18.71
2022-10-30T15:23:26.003Z,18.65
2022-10-30T15:25:34.084Z,18.49
2022-10-30T15:27:44.304Z,18.43
2022-10-30T15:29:53.742Z,18.35
2022-10-30T15:32:02.523Z,18.13
2022-10-30T15:34:21.609Z,17.96
2022-10-30T15:36:28.373Z,17.93
2022-10-30T15:38:31.006Z,17.82
2022-10-30T15:40:35.340Z,17.72
2022-10-30T15:42:38.772Z,17.79
2022-10-30T15:44:44.739Z,17.64
2022-10-30T15:46:48.961Z,17.47
2022-10-30T15:48:52.988Z,17.52
2022-10-30T15:51:01.391Z,17.44
2022-10-30T15:53:04.287Z,17.42
2022-10-30T15:55:10.652Z,17.11
2022-10-30T15:57:43.215Z,17.01
2022-10-30T15:59:41.916Z,16.91
2022-10-30T16:01:46.347Z,16.70
2022-10-30T16:03:54.671Z,16.68
2022-10-30T16:06:16.286Z,16.58
2022-10-30T16:08:22.634Z,16.53
2022-10-30T16:10:28.000Z,16.54
2022-10-30T16:12:31.992Z,16.56
2022-10-30T16:14:35.748Z,16.62
2022-10-30T16:16:38.496Z,16.49
2022-10-30T16:18:42.120Z,16.79
2022-10-30T16:20:49.474Z,17.31
2022-10-30T16:22:52.192Z,17.34
2022-10-30T16:24:56.671Z,17.38
2022-10-30T16:27:07.183Z,16.81
2022-10-30T16:29:21.835Z,16.57
2022-10-30T16:31:25.347Z,16.46
2022-10-30T16:33:30.463Z,16.56
2022-10-30T16:35:33.288Z,16.34
2022-10-30T16:37:39.410Z,16.11
2022-10-30T16:39:42.700Z,16.02
2022-10-30T16:41:45.724Z,15.97
2022-10-30T16:44:11.118Z,15.87
2022-10-30T16:46:36.236Z,15.87
2022-10-30T16:48:38.926Z,15.77
2022-10-30T16:50:41.938Z,15.75
2022-10-30T16:52:46.008Z,15.56
2022-10-30T16:54:53.960Z,15.77
2022-10-30T16:56:59.199Z,15.69
2022-10-30T16:59:08.784Z,15.64
2022-10-30T17:01:11.496Z,15.76
2022-10-30T17:03:14.478Z,15.84
2022-10-30T17:05:24.091Z,15.74
2022-10-30T17:07:27.829Z,15.88
2022-10-30T17:09:37.054Z,16.42
2022-10-30T17:11:42.299Z,16.05
2022-10-30T17:14:00.427Z,15.71
2022-10-30T17:16:24.783Z,15.41
2022-10-30T17:18:33.055Z,15.37
2022-10-30T17:20:35.787Z,15.71
2022-10-30T17:22:39.320Z,15.47
2022-10-30T17:24:43.689Z,15.27
2022-10-30T17:26:55.828Z,15.35
2022-10-30T17:28:58.626Z,15.28
2022-10-30T17:31:21.361Z,15.71
2022-10-30T17:33:27.003Z,15.52
2022-10-30T17:35:29.750Z,15.79
2022-10-30T17:37:32.364Z,15.71
2022-10-30T17:39:35.013Z,15.65
2022-10-30T17:41:39.508Z,15.28
2022-10-30T17:43:49.900Z,15.02
2022-10-30T17:45:52.605Z,14.99
2022-10-30T17:47:55.221Z,15.23
2022-10-30T17:49:59.217Z,14.95
2022-10-30T17:52:02.322Z,15.15
2022-10-30T17:54:10.949Z,15.01
2022-10-30T17:56:15.970Z,15.08
2022-10-30T17:58:19.924Z,14.98
2022-10-30T18:00:22.584Z,14.82
2022-10-30T18:02:25.295Z,14.69
2022-10-30T18:04:27.949Z,14.58
2022-10-30T18:06:30.572Z,14.56
2022-10-30T18:08:33.783Z,14.42
2022-10-30T18:10:36.445Z,14.36
2022-10-30T18:12:39.197Z,14.42
2022-10-30T18:14:45.445Z,14.45
2022-10-30T18:16:52.846Z,14.39
2022-10-30T18:18:58.663Z,14.36
2022-10-30T18:21:01.321Z,14.23
2022-10-30T18:23:04.576Z,14.21
2022-10-30T18:25:16.363Z,14.19
2022-10-30T18:27:18.947Z,14.16
2022-10-30T18:29:21.679Z,14.03
2022-10-30T18:31:25.805Z,14.03
2022-10-30T18:33:28.480Z,14.01
2022-10-30T18:35:34.172Z,13.97
2022-10-30T18:37:36.808Z,14.02
2022-10-30T18:39:39.409Z,14.02
2022-10-30T18:41:43.476Z,14.10
2022-10-30T18:43:47.190Z,14.07
2022-10-30T18:45:50.203Z,14.07
2022-10-30T18:47:55.735Z,14.00
2022-10-30T18:49:58.332Z,14.00
2022-10-30T18:52:00.948Z,13.98
2022-10-30T18:54:03.932Z,13.89
2022-10-30T18:56:10.282Z,13.85
2022-10-30T18:58:13.133Z,13.74
2022-10-30T19:00:18.246Z,13.85
2022-10-30T19:02:22.066Z,13.68
2022-10-30T19:04:26.157Z,13.76
2022-10-30T19:06:28.806Z,13.65
2022-10-30T19:08:31.411Z,13.58
2022-10-30T19:10:36.263Z,13.61
2022-10-30T19:12:51.479Z,13.58
2022-10-30T19:15:01.242Z,13.55
2022-10-30T19:17:03.839Z,13.58
2022-10-30T19:19:06.496Z,13.60
2022-10-30T19:21:16.184Z,13.51
2022-10-30T19:23:21.448Z,13.51
2022-10-30T19:25:27.032Z,13.49
2022-10-30T19:27:29.649Z,13.46
2022-10-30T19:29:32.308Z,13.64
2022-10-30T19:31:34.909Z,13.54
2022-10-30T19:33:37.488Z,13.47
2022-10-30T19:35:40.129Z,13.51
2022-10-30T19:37:44.686Z,13.57
2022-10-30T19:39:47.317Z,13.54
2022-10-30T19:41:50.230Z,13.48
2022-10-30T19:43:53.008Z,13.50
2022-10-30T19:45:57.886Z,13.52
2022-10-30T19:48:02.453Z,13.54
2022-10-30T19:50:21.035Z,13.65
2022-10-30T19:52:28.257Z,13.58
2022-10-30T19:54:33.320Z,13.71
2022-10-30T19:56:35.960Z,13.69
2022-10-30T19:58:38.583Z,13.87
2022-10-30T20:00:43.477Z,13.80
2022-10-30T20:02:46.556Z,13.97
2022-10-30T20:04:50.130Z,13.91
2022-10-30T20:06:52.796Z,13.91
2022-10-30T20:08:57.598Z,13.76
2022-10-30T20:11:01.939Z,13.77
2022-10-30T20:13:05.588Z,13.67
2022-10-30T20:15:14.351Z,13.64
2022-10-30T20:17:16.934Z,13.60
2022-10-30T20:19:28.972Z,13.46
2022-10-30T20:21:32.145Z,13.37
2022-10-30T20:23:34.898Z,13.38
2022-10-30T20:25:38.619Z,13.32
2022-10-30T20:27:44.463Z,13.28
2022-10-30T20:29:47.185Z,13.21
2022-10-30T20:31:49.812Z,13.23
2022-10-30T20:33:52.431Z,13.12
2022-10-30T20:35:55.609Z,13.21
2022-10-30T20:38:00.179Z,13.23
2022-10-30T20:40:02.901Z,13.07
2022-10-30T20:42:05.580Z,13.11
2022-10-30T20:44:12.428Z,13.00
2022-10-30T20:46:15.088Z,12.96
2022-10-30T20:48:17.714Z,12.93
2022-10-30T20:50:21.708Z,12.92
2022-10-30T20:52:24.364Z,12.89
2022-10-30T20:54:26.964Z,12.90
2022-10-30T20:56:31.772Z,12.82
2022-10-30T20:58:35.296Z,12.81
2022-10-30T21:00:40.958Z,12.82
2022-10-30T21:02:44.322Z,12.85
2022-10-30T21:04:48.624Z,12.89
2022-10-30T21:06:52.539Z,13.00
2022-10-30T21:08:55.894Z,12.92
2022-10-30T21:11:01.169Z,12.89
2022-10-30T21:13:08.534Z,12.87
2022-10-30T21:15:13.343Z,12.86
2022-10-30T21:17:18.015Z,12.95
2022-10-30T21:19:22.206Z,12.98
2022-10-30T21:21:26.081Z,12.93
2022-10-30T21:23:31.617Z,12.93
2022-10-30T21:25:36.061Z,12.99
2022-10-30T21:27:39.503Z,12.99
2022-10-30T21:29:46.364Z,13.08
2022-10-30T21:31:49.582Z,13.01
2022-10-30T21:33:54.477Z,12.89
2022-10-30T21:35:57.444Z,13.02
2022-10-30T21:38:01.977Z,12.86
2022-10-30T21:40:05.592Z,12.74
2022-10-30T21:42:09.181Z,13.02
2022-10-30T21:44:12.695Z,12.89
2022-10-30T21:46:16.252Z,12.75
2022-10-30T21:48:19.251Z,12.53
2022-10-30T21:50:24.116Z,12.61
2022-10-30T21:52:28.167Z,12.67
2022-10-30T21:54:31.945Z,12.57
2022-10-30T21:59:08.756Z,12.38
2022-10-30T22:01:15.340Z,12.32
2022-10-30T22:03:18.055Z,12.26
2022-10-30T22:05:20.723Z,12.32
2022-10-30T22:07:24.709Z,12.30
2022-10-30T22:09:27.397Z,12.23
2022-10-30T22:11:30.410Z,12.20
2022-10-30T22:13:33.070Z,12.28
2022-10-30T22:15:35.711Z,12.27
2022-10-30T22:17:38.362Z,12.21
2022-10-30T22:19:41.003Z,12.20
2022-10-30T22:21:43.618Z,12.13
2022-10-30T22:23:47.713Z,12.21
2022-10-30T22:25:55.279Z,12.12
2022-10-30T22:27:58.247Z,12.12
2022-10-30T22:30:01.087Z,12.10
2022-10-30T22:32:03.739Z,12.23
2022-10-30T22:34:06.396Z,12.18
2022-10-30T22:36:14.367Z,12.14
2022-10-30T22:38:17.060Z,12.09
2022-10-30T22:40:21.030Z,12.09
2022-10-30T22:42:23.680Z,12.03
2022-10-30T22:44:26.275Z,12.01
2022-10-30T22:46:31.136Z,12.04
2022-10-30T22:48:33.928Z,12.05
2022-10-30T22:50:36.924Z,12.08
2022-10-30T22:52:39.518Z,12.03
2022-10-30T22:54:42.160Z,12.20
2022-10-30T22:56:46.194Z,12.14
2022-10-30T22:58:50.479Z,12.12
2022-10-30T23:00:53.112Z,12.17
2022-10-30T23:02:56.048Z,12.15
2022-10-30T23:04:58.865Z,12.18
2022-10-30T23:07:01.535Z,12.26
2022-10-30T23:09:07.095Z,12.22
2022-10-30T23:11:10.014Z,12.27
2022-10-30T23:13:14.085Z,12.24
2022-10-30T23:15:16.889Z,12.28
2022-10-30T23:17:19.537Z,12.25
2022-10-30T23:19:22.228Z,12.24
2022-10-30T23:21:26.884Z,12.31
2022-10-30T23:23:29.701Z,12.26
2022-10-30T23:25:34.561Z,12.29
2022-10-30T23:27:37.222Z,12.25
2022-10-30T23:29:41.192Z,12.24
2022-10-30T23:31:44.431Z,12.20
2022-10-30T23:33:47.889Z,12.10
2022-10-30T23:35:50.521Z,12.06
2022-10-30T23:37:53.363Z,12.08
2022-10-30T23:39:56.080Z,12.22
2022-10-30T23:41:58.757Z,12.25
2022-10-30T23:44:03.245Z,12.24
2022-10-30T23:46:07.356Z,12.26
2022-10-30T23:48:09.967Z,12.19
2022-10-30T23:50:12.620Z,12.24
2022-10-30T23:52:15.260Z,12.27
2022-10-30T23:54:17.937Z,12.31
2022-10-30T23:56:20.711Z,12.33
2022-10-30T23:58:23.403Z,12.37
